createdAt,value
2022-10-17T00:08:58.105Z,101187.45
2022-10-17T00:24:01.369Z,101205.05
2022-10-17T00:39:04.534Z,101200.33
2022-10-17T00:54:09.968Z,101204.02
2022-10-17T01:09:13.368Z,101218.73
2022-10-17T01:24:47.457Z,101215.04
2022-10-17T01:40:10.821Z,101206.52
2022-10-17T01:55:20.923Z,101224.21
2022-10-17T02:10:36.320Z,101257.89
2022-10-17T02:25:48.601Z,101260.42
2022-10-17T02:40:53.288Z,101274.83
2022-10-17T02:56:05.384Z,101284.50
2022-10-17T03:11:09.045Z,101308.01
2022-10-17T03:26:12.161Z,101315.65
2022-10-17T03:41:15.594Z,101326.27
2022-10-17T03:56:24.859Z,101325.26
2022-10-17T04:11:42.562Z,101344.75
2022-10-17T04:26:46.284Z,101349.44
2022-10-17T04:41:50.097Z,101361.21
2022-10-17T04:56:53.961Z,101346.73
2022-10-17T05:11:57.997Z,101358.77
2022-10-17T05:27:01.787Z,101366.92
2022-10-17T05:42:05.115Z,101391.27
2022-10-17T05:57:09.416Z,101398.62
2022-10-17T06:12:13.511Z,101410.73
2022-10-17T06:27:18.191Z,101432.51
2022-10-17T06:42:22.110Z,101423.73
2022-10-17T06:57:45.961Z,101427.77
2022-10-17T07:13:08.739Z,101458.54
2022-10-17T07:28:15.344Z,101478.80
2022-10-17T07:43:18.807Z,101482.39
2022-10-17T07:58:22.598Z,101491.90
2022-10-17T08:13:25.948Z,101486.55
2022-10-17T08:28:29.690Z,101486.46
2022-10-17T08:44:17.546Z,101478.80
2022-10-17T08:59:26.969Z,101469.06
2022-10-17T09:14:45.081Z,101472.18
2022-10-17T09:29:51.340Z,101456.67
2022-10-17T09:45:26.387Z,101450.30
2022-10-17T10:00:31.034Z,101441.30
2022-10-17T10:15:39.619Z,101429.98
2022-10-17T10:30:47.919Z,101421.85
2022-10-17T10:45:52.320Z,101413.98
2022-10-17T11:09:57.803Z,101395.52
2022-10-17T11:25:08.664Z,101388.88
2022-10-17T11:40:21.922Z,101374.18
2022-10-17T11:55:30.123Z,101360.33
2022-10-17T12:10:43.146Z,101353.69
2022-10-17T12:25:59.634Z,101339.33
2022-10-17T12:41:08.331Z,101331.60
2022-10-17T12:56:46.190Z,101325.89
2022-10-17T13:11:50.825Z,101324.92
2022-10-17T13:26:54.637Z,101317.22
2022-10-17T13:41:58.665Z,101307.40
2022-10-17T13:57:05.039Z,101288.54
2022-10-17T14:12:16.984Z,101277.67
2022-10-17T14:27:35.541Z,101261.58
2022-10-17T14:42:40.768Z,101249.66
2022-10-17T14:57:46.263Z,101234.34
2022-10-17T15:12:58.898Z,101237.16
2022-10-17T15:28:12.195Z,101229.77
2022-10-17T15:43:19.678Z,101220.60
2022-10-17T15:58:23.193Z,101224.23
2022-10-17T16:13:26.216Z,101213.52
2022-10-17T16:28:29.885Z,101220.52
2022-10-17T16:43:36.707Z,101216.73
2022-10-17T16:58:41.116Z,101215.19
2022-10-17T17:13:44.540Z,101212.64
2022-10-17T17:28:49.883Z,101196.21
2022-10-17T17:43:53.810Z,101201.64
2022-10-17T17:59:00.303Z,101190.15
2022-10-17T18:14:07.364Z,101184.55
2022-10-17T18:29:13.509Z,101172.19
2022-10-17T18:44:17.745Z,101162.36
2022-10-17T18:59:25.030Z,101161.83
2022-10-17T19:14:30.701Z,101156.13
2022-10-17T19:29:34.696Z,101142.91
2022-10-17T19:44:38.312Z,101137.38
2022-10-17T19:59:41.323Z,101136.47
2022-10-17T20:14:44.635Z,101138.80
2022-10-17T20:29:48.044Z,101131.34
2022-10-17T20:44:51.174Z,101133.61
2022-10-17T20:59:54.197Z,101119.27
2022-10-17T21:14:57.934Z,101116.80
2022-10-17T21:30:01.267Z,101117.52
2022-10-17T21:45:10.605Z,101115.13
2022-10-17T22:00:19.488Z,101114.45
2022-10-17T22:15:22.817Z,101111.08
2022-10-17T22:30:26.086Z,101098.77
2022-10-17T22:45:29.184Z,101100.52
2022-10-17T23:00:32.119Z,101096.20
2022-10-17T23:15:35.504Z,101088.55
2022-10-17T23:30:39.463Z,101078.05
2022-10-17T23:45:42.689Z,101077.33
